< < Back
Terminal Aerodrome Forecast


Current Version              Previous Versions:   1  2  3  4  5  6  7  8  9  

Terminal Aerodrome Forecast

027
FTUS42 KFFC 082333
TAFATL
TAF
KATL 082333Z 0900/1006 30014G24KT P6SM BKN070
     FM090400 29011G20KT P6SM BKN070
     FM091100 29012G25KT P6SM VCSH SCT025 BKN045 PROB30 0913/0918
      6SM -SHSN BKN025
     FM091800 29012G25KT P6SM BKN030 PROB30 0918/0923 6SM -SHSN
      BKN025
     FM092300 30012KT P6SM BKN030=

Latest METAR

766
SAUS70 KWBC 090500 RRE
MTRATL
METAR KATL 090452Z 29010KT 10SM FEW070 02/M07 A2981 RMK AO2 SLP099
T00221067 401220022


USA.gov is the U.S. government's official web portal to all federal, state and local government web resources and services.